Hovedside
METAR-TAF:

METAR-TAF

Lufthavner :

Îles de la Madeleine, Québec, Canada

breddegrad: 47-25N, lengdegrad: 061-47W, høyde over havet: 10 m

Gjeldene værobservasjon

Denne rapporten ble laget for 24 minutter siden, klokken 19:00 UTC
Vind 17 kt fra Sørvest med vindkast opp mot 24 kt
Temperatur 19°C
Luftfuktighet 56%
Trykk 1028 hPa
Sikt: 32.2 km
Få skyer i en høyde av 26000 ft

METAR: CYGR 211900Z 23017G24KT 20SM FEW260 19/10 A3037 RMK CI1 SLP284

Tid: 15:24 (19:24 UTC)

Varsel

Denne rapporten ble laget for 5 timer og 46 minutter siden, klokken 13:38 UTC
Varsel gyldig fra 21. klokken 14 UTC til 22. klokken 02 UTC
Vind 15 kt fra Sørvest med vindkast opp mot 25 kt
Sikt: 10 km
Få skyer i en høyde av 26000 ft

TAF: CYGR 211338Z 2114/2202 23015G25KT P6SM FEW260 RMK NXT FCST BY 212000Z

Værobservasjoner og værvarsel for over 4000 flyplasser (METAR- og TAF-rapporter).

Tilgjengelige stasjoner er representert av de røde og gule prikkene på kartet.

Hold musepekeren over prikken for å se navnet på stasjonen.

Klikk så for å se værobservasjoner og -varsler.

For å forandre kartet kan du klikke på den grønne knappen med svart kryss for å zoome inn, på den grønne knappen med strek for å zoome ut, eller på de grønne pilene for å se tilstøtende kart.


METAR-TAF: